createdAt,value
2019-04-22T00:01:38.621Z,20.56
2019-04-22T00:04:11.065Z,20.55
2019-04-22T00:06:58.008Z,20.51
2019-04-22T00:09:30.916Z,20.50
2019-04-22T00:12:04.135Z,20.42
2019-04-22T00:14:24.525Z,20.36
2019-04-22T00:17:00.681Z,20.26
2019-04-22T00:19:30.351Z,20.21
2019-04-22T00:21:55.233Z,20.16
2019-04-22T00:24:17.443Z,20.13
2019-04-22T00:26:50.022Z,20.12
2019-04-22T00:29:37.384Z,20.10
2019-04-22T00:31:51.731Z,20.10
2019-04-22T00:34:14.252Z,20.11
2019-04-22T00:36:45.162Z,20.07
2019-04-22T00:39:18.364Z,19.94
2019-04-22T00:41:44.356Z,19.90
2019-04-22T00:44:17.809Z,19.91
2019-04-22T00:46:44.456Z,19.90
2019-04-22T00:49:52.815Z,19.86
2019-04-22T00:51:48.720Z,19.86
2019-04-22T00:54:08.698Z,19.84
2019-04-22T00:56:32.613Z,19.81
2019-04-22T00:58:59.017Z,19.78
2019-04-22T01:01:31.822Z,19.79
2019-04-22T01:04:11.136Z,19.76
2019-04-22T01:06:29.091Z,19.71
2019-04-22T01:09:07.131Z,19.66
2019-04-22T01:13:55.849Z,19.64
2019-04-22T01:16:23.898Z,19.63
2019-04-22T01:18:55.519Z,19.55
2019-04-22T01:21:27.545Z,19.52
2019-04-22T01:23:49.092Z,19.52
2019-04-22T01:26:09.577Z,19.50
2019-04-22T01:28:34.193Z,19.46
2019-04-22T01:30:59.697Z,19.43
2019-04-22T01:33:29.081Z,19.46
2019-04-22T01:36:10.577Z,19.46
2019-04-22T01:38:36.573Z,19.45
2019-04-22T01:41:16.524Z,19.46
2019-04-22T01:43:52.207Z,19.49
2019-04-22T01:46:09.818Z,19.47
2019-04-22T01:48:44.834Z,19.44
2019-04-22T01:51:03.404Z,19.51
2019-04-22T01:53:36.034Z,19.45
2019-04-22T01:56:06.680Z,19.25
2019-04-22T01:58:23.645Z,19.09
2019-04-22T02:01:00.211Z,19.03
2019-04-22T02:03:33.344Z,19.07
2019-04-22T02:05:59.213Z,19.14
2019-04-22T02:09:04.111Z,19.23
2019-04-22T02:10:54.399Z,19.30
2019-04-22T02:13:30.338Z,19.28
2019-04-22T02:18:24.487Z,19.20
2019-04-22T02:20:48.843Z,19.21
2019-04-22T02:23:45.852Z,19.18
2019-04-22T02:25:49.486Z,19.13
2019-04-22T02:28:25.651Z,19.09
2019-04-22T02:31:04.946Z,19.08
2019-04-22T02:33:40.571Z,19.11
2019-04-22T02:36:08.181Z,19.09
2019-04-22T02:38:42.712Z,19.05
2019-04-22T02:41:02.117Z,19.05
2019-04-22T02:43:28.708Z,19.00
2019-04-22T02:45:52.161Z,19.01
2019-04-22T02:48:26.518Z,19.06
2019-04-22T02:50:43.416Z,19.04
2019-04-22T02:53:14.637Z,18.98
2019-04-22T02:55:46.125Z,18.94
2019-04-22T02:58:05.557Z,18.92
2019-04-22T03:00:40.263Z,18.86
2019-04-22T03:05:37.131Z,18.71
2019-04-22T03:08:10.685Z,18.58
2019-04-22T03:10:37.422Z,18.58
2019-04-22T03:13:00.471Z,18.59
2019-04-22T03:15:27.793Z,18.57
2019-04-22T03:20:42.078Z,18.55
2019-04-22T03:22:55.397Z,18.55
2019-04-22T03:27:47.822Z,18.44
2019-04-22T03:40:28.216Z,18.43
2019-04-22T03:47:41.196Z,18.29
2019-04-22T03:50:22.707Z,18.32
2019-04-22T03:55:07.744Z,18.42
2019-04-22T04:00:17.463Z,18.30
2019-04-22T04:05:05.309Z,18.15
2019-04-22T04:10:10.258Z,18.13
2019-04-22T04:12:28.688Z,18.12
2019-04-22T04:15:05.819Z,18.09
2019-04-22T04:17:29.235Z,18.10
2019-04-22T04:20:07.978Z,18.11
2019-04-22T04:25:13.285Z,18.09
2019-04-22T04:30:05.617Z,18.19
2019-04-22T04:32:34.318Z,18.17
2019-04-22T04:35:07.196Z,18.19
2019-04-22T04:39:57.385Z,18.22
2019-04-22T04:42:27.309Z,18.15
2019-04-22T04:45:00.896Z,18.17
2019-04-22T04:49:43.883Z,18.12
2019-04-22T04:52:19.166Z,18.18
2019-04-22T04:54:35.956Z,18.28
2019-04-22T04:57:07.349Z,18.32
2019-04-22T05:00:00.556Z,18.37
2019-04-22T05:02:06.341Z,18.54
2019-04-22T05:05:00.278Z,18.73
2019-04-22T05:07:19.727Z,18.86
2019-04-22T05:09:34.631Z,19.02
2019-04-22T05:12:01.362Z,19.12
2019-04-22T05:14:36.777Z,19.26
2019-04-22T05:16:54.653Z,19.40
2019-04-22T05:19:22.622Z,19.55
2019-04-22T05:21:53.380Z,19.68
2019-04-22T05:26:52.309Z,19.96
2019-04-22T05:29:09.660Z,20.01
2019-04-22T05:31:44.657Z,20.19
2019-04-22T05:34:08.201Z,20.41
2019-04-22T05:36:42.705Z,20.65
2019-04-22T05:39:09.471Z,20.81
2019-04-22T05:41:36.524Z,21.01
2019-04-22T05:44:02.921Z,21.06
2019-04-22T05:46:28.706Z,21.13
2019-04-22T05:48:59.753Z,21.27
2019-04-22T05:51:35.484Z,21.35
2019-04-22T05:54:05.420Z,21.43
2019-04-22T05:56:33.931Z,21.52
2019-04-22T05:58:58.822Z,21.73
2019-04-22T06:03:58.744Z,22.13
2019-04-22T06:06:18.122Z,22.27
2019-04-22T06:08:51.066Z,22.52
2019-04-22T06:11:22.302Z,22.81
2019-04-22T06:13:38.949Z,23.11
2019-04-22T06:16:20.454Z,23.30
2019-04-22T06:18:44.863Z,23.49
2019-04-22T06:21:11.446Z,23.75
2019-04-22T06:23:49.222Z,23.83
2019-04-22T06:28:40.586Z,23.94
2019-04-22T06:31:12.265Z,24.13
2019-04-22T06:33:34.704Z,24.39
2019-04-22T06:41:08.979Z,25.23
2019-04-22T06:46:04.123Z,25.59
2019-04-22T06:50:53.968Z,25.84
2019-04-22T06:53:30.087Z,26.03
2019-04-22T06:55:51.659Z,26.35
2019-04-22T06:58:21.767Z,26.62
2019-04-22T07:00:45.971Z,26.91
2019-04-22T07:05:46.401Z,27.25
2019-04-22T07:08:49.106Z,27.36
2019-04-22T07:10:47.772Z,27.44
2019-04-22T07:13:23.489Z,27.61
2019-04-22T07:18:19.838Z,27.77
2019-04-22T07:20:48.087Z,27.88
2019-04-22T07:23:15.459Z,28.08
2019-04-22T07:28:05.449Z,28.32
2019-04-22T07:30:35.706Z,28.47
2019-04-22T07:35:36.212Z,28.86
2019-04-22T07:38:07.870Z,29.00
2019-04-22T07:40:37.522Z,28.98
2019-04-22T07:43:04.396Z,29.00
2019-04-22T07:45:29.324Z,29.12
2019-04-22T07:48:02.735Z,29.22
2019-04-22T07:50:35.917Z,29.41
2019-04-22T07:52:52.147Z,29.50
2019-04-22T07:55:24.403Z,29.50
2019-04-22T07:57:51.866Z,29.50
2019-04-22T08:00:22.668Z,29.39
2019-04-22T08:02:53.338Z,29.39
2019-04-22T08:05:18.827Z,29.44
2019-04-22T08:07:49.402Z,29.48
2019-04-22T08:10:24.271Z,29.44
2019-04-22T08:12:46.832Z,29.27
2019-04-22T08:15:12.971Z,29.02
2019-04-22T08:20:16.704Z,28.55
2019-04-22T08:22:47.651Z,28.37
2019-04-22T08:25:04.191Z,28.18
2019-04-22T08:27:41.407Z,27.96
2019-04-22T08:32:34.563Z,27.53
2019-04-22T08:35:04.622Z,27.32
2019-04-22T08:40:07.660Z,26.80
2019-04-22T08:42:51.399Z,26.57
2019-04-22T08:45:10.651Z,26.36
2019-04-22T08:50:03.225Z,26.16
2019-04-22T08:52:31.875Z,25.94
2019-04-22T08:54:57.539Z,25.89
2019-04-22T08:57:31.562Z,25.95
2019-04-22T08:59:53.105Z,25.92
2019-04-22T09:02:19.890Z,25.88
2019-04-22T09:04:48.355Z,25.92
2019-04-22T09:09:47.254Z,25.80
2019-04-22T09:12:14.288Z,25.81
2019-04-22T09:14:47.508Z,25.76
2019-04-22T09:17:17.431Z,25.65
2019-04-22T09:19:44.133Z,25.58
2019-04-22T09:22:11.263Z,25.61
2019-04-22T09:24:37.432Z,25.61
2019-04-22T09:27:11.269Z,25.41
2019-04-22T09:32:05.583Z,25.52
2019-04-22T09:34:33.844Z,25.52
2019-04-22T09:37:07.965Z,25.57
2019-04-22T09:39:30.215Z,25.63
2019-04-22T09:41:59.221Z,25.59
2019-04-22T09:44:33.142Z,25.54
2019-04-22T09:46:55.236Z,25.48
2019-04-22T09:49:30.703Z,25.38
2019-04-22T09:51:52.123Z,25.30
2019-04-22T09:54:31.296Z,25.18
2019-04-22T09:56:49.285Z,25.10
2019-04-22T09:59:20.894Z,25.02
2019-04-22T10:01:59.368Z,25.05
2019-04-22T10:04:14.145Z,25.02
2019-04-22T10:06:40.389Z,24.95
2019-04-22T10:11:56.382Z,25.05
2019-04-22T10:14:12.355Z,25.04
2019-04-22T10:16:45.276Z,24.98
2019-04-22T10:19:11.441Z,24.99
2019-04-22T10:21:45.844Z,24.89
2019-04-22T10:24:12.172Z,24.74
2019-04-22T10:26:39.864Z,24.62
2019-04-22T10:29:09.096Z,24.58
2019-04-22T10:31:36.983Z,24.52
2019-04-22T10:33:50.008Z,24.49
2019-04-22T10:36:05.694Z,24.41
2019-04-22T10:38:32.824Z,24.51
2019-04-22T10:41:00.865Z,24.62
2019-04-22T10:43:29.386Z,24.63
2019-04-22T10:45:57.815Z,24.51
2019-04-22T10:48:26.120Z,24.46
2019-04-22T10:50:53.102Z,24.53
2019-04-22T10:53:21.537Z,24.67
2019-04-22T10:55:49.811Z,24.74
2019-04-22T10:58:17.917Z,24.83
2019-04-22T11:00:45.380Z,24.89
2019-04-22T11:03:13.905Z,24.89
2019-04-22T11:05:42.057Z,24.69
2019-04-22T11:08:10.374Z,24.52
2019-04-22T11:10:56.444Z,24.39
2019-04-22T11:13:07.199Z,24.46
2019-04-22T11:15:34.837Z,24.36
2019-04-22T11:18:02.016Z,24.15
2019-04-22T11:20:29.216Z,23.99
2019-04-22T11:22:56.394Z,23.92
2019-04-22T11:25:23.673Z,23.86
2019-04-22T11:27:51.342Z,23.90
2019-04-22T11:30:22.055Z,24.00
2019-04-22T11:32:46.948Z,24.04
2019-04-22T11:35:15.850Z,24.02
2019-04-22T11:37:43.093Z,24.02
2019-04-22T11:40:19.242Z,24.11
2019-04-22T11:42:38.749Z,24.22
2019-04-22T11:45:06.048Z,24.29
2019-04-22T11:47:33.138Z,24.25
2019-04-22T11:50:00.052Z,24.27
2019-04-22T11:52:27.001Z,24.19
2019-04-22T11:54:54.893Z,24.01
2019-04-22T11:57:23.333Z,23.98
2019-04-22T11:59:51.084Z,23.98
2019-04-22T12:02:20.037Z,24.00
2019-04-22T12:04:47.750Z,24.00
2019-04-22T12:07:17.187Z,23.98
2019-04-22T12:09:45.849Z,23.90
2019-04-22T12:12:13.949Z,23.85
2019-04-22T12:14:42.462Z,23.81
2019-04-22T12:17:11.120Z,23.80
2019-04-22T12:19:38.313Z,23.82
2019-04-22T12:22:07.037Z,23.82
2019-04-22T12:24:34.268Z,23.85
2019-04-22T12:27:02.220Z,23.84
2019-04-22T12:29:31.019Z,23.76
2019-04-22T12:31:58.080Z,23.63
2019-04-22T12:34:26.094Z,23.57
2019-04-22T12:36:54.256Z,23.63
2019-04-22T12:39:21.499Z,23.73
2019-04-22T12:41:49.847Z,23.78
2019-04-22T12:44:18.073Z,23.76
2019-04-22T12:46:46.193Z,23.64
2019-04-22T12:49:14.329Z,23.58
2019-04-22T12:51:42.869Z,23.61
2019-04-22T12:54:10.981Z,23.66
2019-04-22T12:56:39.539Z,23.61
2019-04-22T12:59:07.683Z,23.57
2019-04-22T13:01:35.134Z,23.57
2019-04-22T13:04:07.818Z,23.57
2019-04-22T13:06:32.027Z,23.53
2019-04-22T13:09:00.249Z,23.55
2019-04-22T13:11:32.780Z,23.58
2019-04-22T13:13:58.923Z,23.52
2019-04-22T13:16:26.980Z,23.51
2019-04-22T13:19:00.075Z,23.55
2019-04-22T13:21:24.642Z,23.42
2019-04-22T13:23:52.926Z,23.26
2019-04-22T13:26:21.142Z,23.25
2019-04-22T13:28:49.245Z,23.20
2019-04-22T13:31:19.341Z,23.22
2019-04-22T13:33:44.852Z,23.20
2019-04-22T13:36:12.050Z,23.22
2019-04-22T13:38:40.589Z,23.35
2019-04-22T13:41:21.071Z,23.44
2019-04-22T13:43:36.878Z,23.42
2019-04-22T13:46:04.014Z,23.39
2019-04-22T13:48:52.905Z,23.30
2019-04-22T13:51:36.229Z,23.29
2019-04-22T13:56:19.164Z,23.37
2019-04-22T13:58:39.524Z,23.33
2019-04-22T14:00:54.594Z,23.37
2019-04-22T14:03:22.489Z,23.45
2019-04-22T14:05:50.893Z,23.42
2019-04-22T14:08:19.823Z,23.28
2019-04-22T14:10:48.410Z,23.19
2019-04-22T14:13:16.146Z,23.05
2019-04-22T14:15:43.843Z,23.03
2019-04-22T14:18:10.904Z,23.06
2019-04-22T14:20:38.671Z,23.12
2019-04-22T14:23:06.601Z,23.11
2019-04-22T14:25:34.623Z,23.10
2019-04-22T14:28:07.951Z,23.10
2019-04-22T14:30:30.605Z,23.03
2019-04-22T14:32:58.033Z,22.98
2019-04-22T14:35:25.357Z,22.98
2019-04-22T14:37:52.371Z,23.02
2019-04-22T14:40:20.708Z,23.14
2019-04-22T14:43:09.904Z,23.13
2019-04-22T14:45:52.251Z,23.09
2019-04-22T14:48:13.728Z,23.12
2019-04-22T14:50:37.287Z,23.14
2019-04-22T14:53:05.414Z,23.10
2019-04-22T14:55:17.472Z,23.10
2019-04-22T14:57:41.858Z,22.96
2019-04-22T15:00:09.501Z,23.02
2019-04-22T15:02:37.536Z,23.01
2019-04-22T15:05:05.952Z,22.93
2019-04-22T15:07:33.086Z,22.86
2019-04-22T15:10:00.006Z,22.93
2019-04-22T15:12:34.531Z,22.99
2019-04-22T15:14:55.569Z,22.89
2019-04-22T15:17:22.924Z,22.78
2019-04-22T15:19:49.935Z,22.73
2019-04-22T15:22:18.675Z,22.62
2019-04-22T15:24:46.872Z,22.66
2019-04-22T15:27:16.267Z,22.73
2019-04-22T15:29:43.398Z,22.59
2019-04-22T15:32:11.743Z,22.58
2019-04-22T15:34:39.485Z,22.57
2019-04-22T15:37:06.621Z,22.60
2019-04-22T15:39:36.208Z,22.58
2019-04-22T15:42:11.605Z,22.63
2019-04-22T15:44:31.741Z,22.71
2019-04-22T15:46:58.696Z,22.73
2019-04-22T15:49:25.642Z,22.70
2019-04-22T15:51:55.396Z,22.66
2019-04-22T15:54:21.483Z,22.62
2019-04-22T15:56:48.851Z,22.57
2019-04-22T15:59:32.960Z,22.45
2019-04-22T16:01:44.833Z,22.53
2019-04-22T16:04:12.794Z,22.57
2019-04-22T16:06:41.093Z,22.53
2019-04-22T16:09:08.979Z,22.54
2019-04-22T16:11:37.773Z,22.58
2019-04-22T16:14:06.439Z,22.61
2019-04-22T16:16:34.747Z,22.66
2019-04-22T16:19:02.439Z,22.67
2019-04-22T16:21:39.773Z,22.59
2019-04-22T16:23:58.718Z,22.49
2019-04-22T16:26:26.441Z,22.43
2019-04-22T16:28:55.923Z,22.47
2019-04-22T16:31:22.226Z,22.50
2019-04-22T16:33:50.338Z,22.40
2019-04-22T16:36:18.612Z,22.39
2019-04-22T16:38:46.870Z,22.36
2019-04-22T16:41:14.759Z,22.45
2019-04-22T16:43:42.840Z,22.39
2019-04-22T16:46:09.893Z,22.36
2019-04-22T16:48:38.028Z,22.41
2019-04-22T16:51:06.295Z,22.50
2019-04-22T16:53:34.908Z,22.59
2019-04-22T16:56:02.693Z,22.52
2019-04-22T16:58:30.517Z,22.45
2019-04-22T17:01:00.709Z,22.43
2019-04-22T17:03:28.967Z,22.38
2019-04-22T17:05:56.110Z,22.31
2019-04-22T17:08:24.416Z,22.33
2019-04-22T17:10:51.735Z,22.30
2019-04-22T17:13:24.474Z,22.39
2019-04-22T17:15:49.327Z,22.50
2019-04-22T17:18:17.220Z,22.50
2019-04-22T17:20:44.846Z,22.53
2019-04-22T17:23:11.824Z,22.55
2019-04-22T17:25:38.706Z,22.56
2019-04-22T17:28:05.752Z,22.60
2019-04-22T17:30:33.174Z,22.52
2019-04-22T17:33:00.882Z,22.54
2019-04-22T17:35:28.356Z,22.57
2019-04-22T17:38:08.805Z,22.59
2019-04-22T17:40:44.899Z,22.59
2019-04-22T17:43:28.460Z,22.46
2019-04-22T17:45:45.070Z,22.42
2019-04-22T17:48:16.893Z,22.44
2019-04-22T17:50:46.779Z,22.41
2019-04-22T17:53:17.333Z,22.41
2019-04-22T17:55:41.604Z,22.44
2019-04-22T17:58:08.129Z,22.45
2019-04-22T18:00:32.247Z,22.45
2019-04-22T18:02:58.439Z,22.45
2019-04-22T18:05:16.596Z,22.43
2019-04-22T18:08:02.595Z,22.42
2019-04-22T18:10:35.607Z,22.41
2019-04-22T18:13:08.796Z,22.38
2019-04-22T18:15:35.745Z,22.42
2019-04-22T18:18:01.011Z,22.42
2019-04-22T18:20:25.481Z,22.39
2019-04-22T18:22:46.242Z,22.39
2019-04-22T18:25:16.341Z,22.36
2019-04-22T18:27:59.030Z,22.38
2019-04-22T18:30:19.302Z,22.41
2019-04-22T18:32:50.481Z,22.43
2019-04-22T18:35:14.127Z,22.39
2019-04-22T18:37:48.391Z,22.39
2019-04-22T18:40:16.271Z,22.39
2019-04-22T18:42:49.487Z,22.39
2019-04-22T18:45:29.670Z,22.37
2019-04-22T18:47:38.765Z,22.36
2019-04-22T18:50:08.705Z,22.35
2019-04-22T18:52:43.950Z,22.30
2019-04-22T18:55:09.772Z,22.26
2019-04-22T18:57:37.120Z,22.26
2019-04-22T19:00:02.124Z,22.23
2019-04-22T19:02:30.551Z,22.19
2019-04-22T19:05:17.922Z,22.18
2019-04-22T19:08:03.129Z,22.15
2019-04-22T19:10:32.626Z,22.18
2019-04-22T19:13:18.260Z,22.17
2019-04-22T19:15:24.450Z,22.15
2019-04-22T19:17:58.289Z,22.10
2019-04-22T19:20:24.020Z,22.12
2019-04-22T19:22:52.273Z,22.08
2019-04-22T19:25:11.923Z,22.05
2019-04-22T19:27:42.332Z,22.06
2019-04-22T19:30:12.266Z,22.04
2019-04-22T19:32:46.287Z,21.97
2019-04-22T19:35:09.728Z,21.91
2019-04-22T19:37:37.834Z,21.86
2019-04-22T19:42:49.513Z,21.91
2019-04-22T19:45:07.595Z,21.91
2019-04-22T19:47:38.870Z,21.95
2019-04-22T19:52:35.564Z,21.89
2019-04-22T19:55:01.524Z,21.87
2019-04-22T19:57:27.749Z,21.88
2019-04-22T19:59:51.525Z,21.89
2019-04-22T20:02:25.021Z,21.87
2019-04-22T20:05:02.858Z,21.86
2019-04-22T20:07:20.199Z,21.86
2019-04-22T20:09:52.219Z,21.83
2019-04-22T20:12:21.701Z,21.81
2019-04-22T20:14:51.149Z,21.78
2019-04-22T20:17:24.490Z,21.78
2019-04-22T20:19:49.510Z,21.78
2019-04-22T20:22:15.154Z,21.79
2019-04-22T20:24:30.268Z,21.76
2019-04-22T20:27:18.941Z,21.75
2019-04-22T20:29:47.841Z,21.72
2019-04-22T20:32:20.254Z,21.69
2019-04-22T20:34:45.561Z,21.64
2019-04-22T20:37:25.281Z,21.61
2019-04-22T20:39:45.573Z,21.58
2019-04-22T20:42:27.787Z,21.55
2019-04-22T20:44:41.037Z,21.49
2019-04-22T20:47:05.872Z,21.47
2019-04-22T20:49:38.261Z,21.40
2019-04-22T20:52:06.347Z,21.33
2019-04-22T20:54:39.008Z,21.26
2019-04-22T20:56:57.715Z,21.21
2019-04-22T20:59:29.937Z,21.18
2019-04-22T21:02:06.678Z,21.13
2019-04-22T21:04:33.532Z,21.05
2019-04-22T21:07:07.656Z,20.97
2019-04-22T21:09:36.640Z,20.96
2019-04-22T21:12:02.600Z,20.98
2019-04-22T21:14:30.689Z,20.99
2019-04-22T21:17:00.374Z,20.96
2019-04-22T21:19:41.697Z,20.94
2019-04-22T21:22:05.075Z,20.90
2019-04-22T21:24:29.058Z,20.86
2019-04-22T21:26:58.444Z,20.83
2019-04-22T21:29:26.679Z,20.79
2019-04-22T21:32:02.364Z,20.72
2019-04-22T21:34:23.212Z,20.64
2019-04-22T21:37:02.603Z,20.62
2019-04-22T21:39:23.883Z,20.53
2019-04-22T21:41:52.489Z,20.48
2019-04-22T21:44:18.441Z,20.46
2019-04-22T21:46:57.833Z,20.44
2019-04-22T21:49:25.048Z,20.45
2019-04-22T21:51:56.789Z,20.48
2019-04-22T21:54:21.640Z,20.47
2019-04-22T21:57:01.831Z,20.48
2019-04-22T21:59:19.253Z,20.45
2019-04-22T22:04:17.611Z,20.45
2019-04-22T22:06:34.659Z,20.44
2019-04-22T22:09:15.714Z,20.41
2019-04-22T22:11:41.510Z,20.31
2019-04-22T22:14:09.113Z,20.26
2019-04-22T22:16:33.639Z,20.23
2019-04-22T22:19:08.174Z,20.19
2019-04-22T22:24:10.170Z,20.12
2019-04-22T22:26:35.278Z,20.10
2019-04-22T22:29:05.238Z,20.09
2019-04-22T22:31:38.246Z,20.10
2019-04-22T22:34:08.055Z,20.12
2019-04-22T22:36:23.595Z,20.10
2019-04-22T22:38:55.087Z,20.03
2019-04-22T22:41:05.407Z,19.93
2019-04-22T22:43:38.802Z,19.91
2019-04-22T22:46:14.999Z,19.91
2019-04-22T22:48:51.435Z,19.92
2019-04-22T22:51:32.558Z,19.90
2019-04-22T22:53:52.692Z,19.93
2019-04-22T22:56:19.170Z,19.99
2019-04-22T22:58:45.384Z,20.00
2019-04-22T23:01:09.576Z,20.01
2019-04-22T23:03:52.871Z,20.02
2019-04-22T23:06:20.998Z,20.03
2019-04-22T23:08:38.571Z,20.01
2019-04-22T23:11:34.869Z,19.97
2019-04-22T23:13:37.264Z,19.95
2019-04-22T23:16:00.808Z,19.90
2019-04-22T23:18:14.418Z,19.89
2019-04-22T23:20:45.616Z,19.90
2019-04-22T23:23:33.223Z,19.93
2019-04-22T23:26:02.273Z,19.93
2019-04-22T23:28:24.477Z,19.93
2019-04-22T23:30:40.968Z,19.88
2019-04-22T23:33:23.995Z,19.85
2019-04-22T23:35:47.126Z,19.80
2019-04-22T23:38:18.414Z,19.68
2019-04-22T23:40:47.785Z,19.64
2019-04-22T23:43:19.312Z,19.63
2019-04-22T23:45:48.022Z,19.64
2019-04-22T23:48:08.330Z,19.68
2019-04-22T23:50:47.281Z,19.66
2019-04-22T23:53:12.872Z,19.68
2019-04-22T23:55:41.283Z,19.71
2019-04-22T23:58:11.196Z,19.73
